WetterOnline ( http://www.wetteronline.de )

Wetter aktuell Schwarzwald/S

Aktuelles Wetter: Feldberg/Schwarzwald (1493m)

6-stündlich | Neueste Meldungen
Ortszeit Temperatur Wetter
Mo, 25.07. 14:00 14.1° C bewölkt
Mo, 25.07. 8:00 13.0° C fast wolkenlos
Mo, 25.07. 2:00 13.4° C bewölkt
So, 24.07. 20:00 13.7° C Nebel
Ortszeit Temperatur Wetter
Mo, 25.07. 17:30 15.3° C bewölkt
Mo, 25.07. 17:00 15.5° C wolkig
Mo, 25.07. 16:30 15.6° C bewölkt
Mo, 25.07. 16:00 15.7° C bewölkt
Mo, 25.07. 15:30 14.7° C bedeckt
Mo, 25.07. 15:00 14.4° C bewölkt
Ortszeit Relative Feuchte Sichtweite
Mo, 25.07. 14:00 91% 10 km
Mo, 25.07. 8:00 97% 1.1 km
Mo, 25.07. 2:00 80% 10 km
So, 24.07. 20:00 98% 100 m
Ortszeit Relative Feuchte Sichtweite
Mo, 25.07. 17:30 88% 10 km
Mo, 25.07. 17:00 87% 10 km
Mo, 25.07. 16:30 86% 10 km
Mo, 25.07. 16:00 85% 10 km
Mo, 25.07. 15:30 93% 10 km
Mo, 25.07. 15:00 94% 10 km
Ortszeit Niederschlagsmenge Niederschlagsart
Mo, 25.07. 14:00 0,0 l/m2 in 6 Std. -
Mo, 25.07. 8:00 0,0 l/m2 in 12 Std. -
Mo, 25.07. 2:00 0,0 l/m2 in 6 Std. -
So, 24.07. 20:00 0,0 l/m2 in 12 Std. -
Ortszeit Niederschlagsmenge Niederschlagsart
Mo, 25.07. 17:30 keine Meldung -
Mo, 25.07. 17:00 0,0 l/m2 in 1 Std. Sprühregen
Mo, 25.07. 16:30 keine Meldung -
Mo, 25.07. 16:00 0,0 l/m2 in 1 Std. -
Mo, 25.07. 15:30 keine Meldung -
Mo, 25.07. 15:00 0.05 l/m2 in 1 Std. Sprühregen
Ortszeit Stärke Spitze Richtung
km/h Bft. km/h Grad Sektor
Mo, 25.07. 14:00 13 3 24 360° N
Mo, 25.07. 8:00 14 3 18 30° NO
Mo, 25.07. 2:00 7 2 25 310° NW
So, 24.07. 20:00 17 3 26 330° NW
Ortszeit Stärke Spitze Richtung
km/h Bft. km/h Grad Sektor
Mo, 25.07. 17:30 13 3 28 10° N
Mo, 25.07. 17:00 20 4 28 330° NW
Mo, 25.07. 16:30 19 3 26 360° N
Mo, 25.07. 16:00 18 3 25 360° N
Mo, 25.07. 15:30 14 3 22 10° N
Mo, 25.07. 15:00 14 3 25 20° N
Ortszeit Untergrenze Bedeckung Gattung
total tief tief mittel hoch
Mo, 25.07. 14:00 60 m 7/8 7/8 - - -
Mo, 25.07. 8:00 <30 m 1/8 1/8 - - -
Mo, 25.07. 2:00 1500 m 7/8 7/8 - - -
So, 24.07. 20:00 <30 m 7/8 7/8 - - -
Ortszeit Bedeckungsgrad in Achtel und Wolkenuntergrenze
Mo, 25.07. 17:30 7(150m) 7(270m)
Mo, 25.07. 17:00 6(240m) 6(390m)
Mo, 25.07. 16:30 4(210m) 7(570m) 7(840m)
Mo, 25.07. 16:00 7(180m) 7(270m)
Mo, 25.07. 15:30 6(120m) 7(240m) 8(2100m)
Mo, 25.07. 15:00 4(<30m) 7(90m)
Ortszeit Stationsdruck (hPa) Tendenz (hPa in 3 Std.)
Mo, 25.07. 14:00 857 + 0,4
Mo, 25.07. 8:00 856 + 0,1
Mo, 25.07. 2:00 856 - 0,5
So, 24.07. 20:00 856 - 0,2
Ortszeit Stationsdruck (hPa) Tendenz (hPa in 3 Std.)
Mo, 25.07. 17:30 856 - 0,2
Mo, 25.07. 17:00 856 - 0,3
Mo, 25.07. 16:30 856 - 0,2
Mo, 25.07. 16:00 856 + 0,1
Mo, 25.07. 15:30 857 + 0,2
Mo, 25.07. 15:00 857 + 0,2
Ortszeit Schneehöhe (cm)
Mo, 25.07. 14:00 0
Mo, 25.07. 8:00 0
Mo, 25.07. 2:00 0
So, 24.07. 20:00 0
Ortszeit Schneehöhe (cm)
Mo, 25.07. 17:30 0
Mo, 25.07. 17:00 0
Mo, 25.07. 16:30 0
Mo, 25.07. 16:00 0
Mo, 25.07. 15:30 0
Mo, 25.07. 15:00 0
Link zu dieser Seite / Seite empfehlen

Das Wetter in ...